createdAt,value
2019-04-20T00:05:13.349Z,1027.5
2019-04-20T00:10:52.860Z,1027.7
2019-04-20T00:16:16.911Z,1027.8
2019-04-20T00:21:55.202Z,1027.7
2019-04-20T00:27:42.578Z,1027.8
2019-04-20T00:33:01.673Z,1027.8
2019-04-20T00:38:26.805Z,1028.1
2019-04-20T00:43:57.661Z,1027.8
2019-04-20T00:49:38.640Z,1027.9
2019-04-20T00:54:58.074Z,1027.8
2019-04-20T01:00:45.326Z,1027.8
2019-04-20T01:06:21.974Z,1027.8
2019-04-20T01:11:37.498Z,1027.9
2019-04-20T01:17:11.558Z,1027.9
2019-04-20T01:22:44.226Z,1028.1
2019-04-20T01:28:27.331Z,1028.2
2019-04-20T01:33:52.418Z,1028.1
2019-04-20T01:39:23.601Z,1028.1
2019-04-20T01:44:49.085Z,1028
2019-04-20T01:50:22.467Z,1028
2019-04-20T01:56:00.959Z,1028
2019-04-20T02:01:27.115Z,1028.2
2019-04-20T02:06:58.561Z,1028.3
2019-04-20T02:12:31.048Z,1028.2
2019-04-20T02:18:10.675Z,1028.1
2019-04-20T02:23:40.608Z,1028
2019-04-20T02:29:30.356Z,1028
2019-04-20T02:46:05.782Z,1027.7
2019-04-20T02:51:46.470Z,1027.6
2019-04-20T02:57:17.579Z,1027.8
2019-04-20T03:02:31.191Z,1028
2019-04-20T03:08:02.094Z,1028.3
2019-04-20T03:13:35.544Z,1028.2
2019-04-20T03:19:02.337Z,1028.3
2019-04-20T03:24:48.410Z,1028.2
2019-04-20T03:30:30.336Z,1028.3
2019-04-20T03:35:48.852Z,1028.3
2019-04-20T03:41:08.048Z,1028.3
2019-04-20T03:46:36.377Z,1028.4
2019-04-20T03:52:19.062Z,1028.3
2019-04-20T03:57:57.023Z,1028.3
2019-04-20T04:03:34.523Z,1028.4
2019-04-20T04:08:44.166Z,1028.5
2019-04-20T04:14:09.635Z,1028.5
2019-04-20T04:19:51.048Z,1028.5
2019-04-20T04:25:24.837Z,1028.6
2019-04-20T04:31:07.742Z,1028.6
2019-04-20T04:36:33.738Z,1028.8
2019-04-20T04:42:16.520Z,1028.8
2019-04-20T04:47:22.387Z,1028.9
2019-04-20T04:53:02.276Z,1028.8
2019-04-20T04:58:27.735Z,1028.7
2019-04-20T05:04:19.926Z,1028.6
2019-04-20T05:09:31.775Z,1028.4
2019-04-20T05:15:09.959Z,1028.4
2019-04-20T05:20:58.337Z,1028.4
2019-04-20T05:26:29.771Z,1028.3
2019-04-20T05:31:47.050Z,1028.3
2019-04-20T05:37:52.835Z,1028.2
2019-04-20T05:43:05.622Z,1028.1
2019-04-20T05:48:38.054Z,1028
2019-04-20T05:59:50.761Z,1028
2019-04-20T06:05:15.871Z,1028.1
2019-04-20T06:10:49.261Z,1028
2019-04-20T06:16:17.780Z,1028
2019-04-20T06:21:57.236Z,1027.9
2019-04-20T07:06:33.738Z,1027.3
2019-04-20T07:28:38.020Z,1027
2019-04-20T07:34:03.520Z,1026.8
2019-04-20T07:39:40.006Z,1026.8
2019-04-20T07:45:20.962Z,1026.7
2019-04-20T07:50:40.286Z,1026.4
2019-04-20T08:02:00.397Z,1026.1
2019-04-20T08:07:12.083Z,1025.9
2019-04-20T08:13:09.091Z,1025.9
2019-04-20T08:18:39.812Z,1025.9
2019-04-20T08:24:06.749Z,1025.7
2019-04-20T08:29:37.734Z,1025.7
2019-04-20T08:40:47.481Z,1025.6
2019-04-20T08:46:31.945Z,1025.6
2019-04-20T08:52:11.218Z,1025.5
2019-04-20T08:57:17.826Z,1025.5
2019-04-20T09:02:55.418Z,1025.3
2019-04-20T09:08:30.733Z,1025.2
2019-04-20T09:14:02.462Z,1025.1
2019-04-20T09:19:44.708Z,1025.1
2019-04-20T09:30:53.035Z,1024.8
2019-04-20T09:36:32.269Z,1024.7
2019-04-20T09:41:59.559Z,1024.7
2019-04-20T09:47:34.285Z,1024.6
2019-04-20T09:53:13.727Z,1024.5
2019-04-20T09:58:54.469Z,1024.4
2019-04-20T10:04:11.026Z,1024.3
2019-04-20T10:09:46.611Z,1024.3
2019-04-20T10:15:22.998Z,1024.2
2019-04-20T10:20:54.049Z,1024.1
2019-04-20T10:26:28.725Z,1024.1
2019-04-20T10:32:07.693Z,1023.9
2019-04-20T10:37:39.440Z,1024
2019-04-20T10:43:14.185Z,1024
2019-04-20T10:48:50.884Z,1023.9
2019-04-20T10:54:22.734Z,1023.8
2019-04-20T10:59:57.637Z,1023.6
2019-04-20T11:05:32.833Z,1023.6
2019-04-20T11:11:14.397Z,1023.5
2019-04-20T11:16:42.634Z,1023.4
2019-04-20T11:22:17.747Z,1023.3
2019-04-20T11:27:54.246Z,1023.3
2019-04-20T11:33:28.213Z,1023.2
2019-04-20T11:39:03.465Z,1023.1
2019-04-20T11:44:38.852Z,1023
2019-04-20T11:50:15.521Z,1023
2019-04-20T11:55:49.459Z,1023
2019-04-20T12:01:27.789Z,1022.8
2019-04-20T12:07:01.217Z,1022.8
2019-04-20T12:12:41.879Z,1022.5
2019-04-20T12:18:11.651Z,1022.6
2019-04-20T12:23:46.789Z,1022.5
2019-04-20T12:29:23.659Z,1022.5
2019-04-20T12:34:58.187Z,1022.3
2019-04-20T12:40:34.136Z,1022.2
2019-04-20T12:46:09.713Z,1022.2
2019-04-20T12:51:52.506Z,1022
2019-04-20T12:57:20.725Z,1022
2019-04-20T13:02:56.157Z,1022
2019-04-20T13:08:36.554Z,1022
2019-04-20T13:14:08.315Z,1021.8
2019-04-20T13:19:43.453Z,1021.8
2019-04-20T13:25:19.308Z,1021.6
2019-04-20T13:30:55.563Z,1021.5
2019-04-20T13:36:32.257Z,1021.5
2019-04-20T13:42:13.758Z,1021.3
2019-04-20T13:47:43.268Z,1021.3
2019-04-20T13:53:19.291Z,1021.2
2019-04-20T13:58:59.776Z,1021.2
2019-04-20T14:04:36.869Z,1021.2
2019-04-20T14:10:13.358Z,1021.1
2019-04-20T14:15:49.197Z,1021.1
2019-04-20T14:21:24.435Z,1021
2019-04-20T14:27:01.149Z,1020.9
2019-04-20T14:32:36.895Z,1020.8
2019-04-20T14:38:13.154Z,1020.8
2019-04-20T14:43:49.033Z,1020.7
2019-04-20T14:49:25.266Z,1020.6
2019-04-20T14:55:01.777Z,1020.5
2019-04-20T15:02:59.476Z,1019.7
2019-04-20T15:08:36.620Z,1019.6
2019-04-20T15:14:10.740Z,1019.7
2019-04-20T15:19:45.429Z,1020.8
2019-04-20T15:25:18.975Z,1020.8
2019-04-20T15:30:54.136Z,1020.7
2019-04-20T15:36:28.433Z,1020.7
2019-04-20T15:42:03.322Z,1020.7
2019-04-20T15:47:36.499Z,1020.7
2019-04-20T15:58:46.428Z,1020.7
2019-04-20T16:09:56.850Z,1020.6
2019-04-20T16:54:43.848Z,1019.8
2019-04-20T17:45:12.046Z,1020
2019-04-20T17:51:04.190Z,1020.1
2019-04-20T17:56:15.166Z,1020.8
2019-04-20T18:02:00.828Z,1020.8
2019-04-20T18:07:56.192Z,1020.7
2019-04-20T18:12:57.517Z,1020.8
2019-04-20T18:18:43.764Z,1020.8
2019-04-20T18:24:05.115Z,1020.9
2019-04-20T18:29:56.398Z,1020.9
2019-04-20T18:35:12.133Z,1021.2
2019-04-20T18:40:53.282Z,1021.6
2019-04-20T18:46:36.899Z,1021.5
2019-04-20T18:51:53.564Z,1021.5
2019-04-20T18:57:29.133Z,1021.5
2019-04-20T19:03:09.162Z,1021.7
2019-04-20T19:08:38.047Z,1021.9
2019-04-20T19:14:12.863Z,1022.1
2019-04-20T19:19:41.269Z,1022
2019-04-20T19:30:49.903Z,1021.9
2019-04-20T19:36:26.228Z,1021.9
2019-04-20T19:41:55.451Z,1021.9
2019-04-20T19:53:21.005Z,1021.8
2019-04-20T20:04:04.485Z,1021.8
2019-04-20T20:09:38.400Z,1021.8
2019-04-20T20:15:12.673Z,1021.8
2019-04-20T20:20:55.177Z,1021.9
2019-04-20T20:26:19.535Z,1021.9
2019-04-20T20:31:57.618Z,1022.3
2019-04-20T20:37:25.209Z,1022.5
2019-04-20T20:43:01.019Z,1022.6
2019-04-20T20:48:34.684Z,1022.5
2019-04-20T20:54:02.094Z,1022.6
2019-04-20T20:59:34.393Z,1022.5
2019-04-20T21:04:55.713Z,1022.6
2019-04-20T21:10:31.821Z,1022.5
2019-04-20T21:16:05.165Z,1022.6
2019-04-20T21:21:44.004Z,1022.5
2019-04-20T21:27:07.539Z,1022.5
2019-04-20T21:32:42.103Z,1022.5
2019-04-20T21:38:10.200Z,1022.6
2019-04-20T21:43:42.559Z,1022.5
2019-04-20T21:49:26.108Z,1022.5
2019-04-20T21:54:43.752Z,1022.4
2019-04-20T22:00:24.839Z,1022.5
2019-04-20T22:05:48.457Z,1022.4
2019-04-20T22:11:20.002Z,1022.4
2019-04-20T22:16:54.842Z,1022.4
2019-04-20T22:22:42.169Z,1022.4
2019-04-20T22:27:58.272Z,1022.5
2019-04-20T22:33:31.672Z,1022.5
2019-04-20T22:39:00.200Z,1022.4
2019-04-20T22:44:33.923Z,1022.4
2019-04-20T22:50:18.619Z,1022.4
2019-04-20T22:55:54.682Z,1022.4
2019-04-20T23:01:19.149Z,1022.5
2019-04-20T23:06:43.935Z,1022.7
2019-04-20T23:12:15.611Z,1022.7
2019-04-20T23:17:45.698Z,1022.3
2019-04-20T23:23:16.856Z,1022.2
2019-04-20T23:28:51.794Z,1022
2019-04-20T23:34:23.548Z,1021.8
2019-04-20T23:39:54.719Z,1021.8
2019-04-20T23:45:31.168Z,1021.9
2019-04-20T23:51:09.704Z,1022
2019-04-20T23:56:32.120Z,1022
